Time;durP1;ratioP1;P1;durP2;ratioP2;P2;SDS_P1;SDS_P2;PMS_P1;PMS_P2;Temp;Humidity;BMP_temperature;BMP_pressure;BME280_temperature;BME280_humidity;BME280_pressure;Samples;Min_cycle;Max_cycle;Signal;HPM_P1;HPM_P2
2023/04/02 00:02:20;;;;;;;2.45;1.75;;;;;;;11.23;69.29;98294.31;6047918;23;20050;-90
2023/04/02 00:05:24;;;;;;;3.70;2.15;;;;;;;11.21;69.99;98296.50;6069359;23;20111;-90
2023/04/02 00:07:51;;;;;;;1.83;1.35;;;;;;;11.24;69.13;98293.97;6071071;23;20011;-91
2023/04/02 00:10:36;;;;;;;7.35;1.63;;;;;;;11.15;70.14;98282.31;5998773;23;20026;-90
2023/04/02 00:13:11;;;;;;;2.33;1.48;;;;;;;11.31;67.73;98290.91;6069638;23;20438;-91
2023/04/02 00:15:38;;;;;;;2.17;1.50;;;;;;;11.25;68.14;98284.81;6071031;23;20067;-90
2023/04/02 00:18:03;;;;;;;2.83;1.48;;;;;;;11.24;68.48;98277.81;6046047;23;19995;-91
2023/04/02 00:20:32;;;;;;;2.00;1.52;;;;;;;11.32;69.06;98287.91;6023553;23;20013;-90
2023/04/02 00:22:58;;;;;;;3.08;1.65;;;;;;;11.31;67.66;98277.44;6022662;23;20434;-91
2023/04/02 00:25:27;;;;;;;2.03;1.40;;;;;;;11.32;67.86;98284.41;6057565;23;20002;-91
2023/04/02 00:27:54;;;;;;;3.05;1.60;;;;;;;11.17;68.66;98268.56;6131595;23;20005;-90
2023/04/02 00:30:20;;;;;;;5.90;1.90;;;;;;;11.23;67.82;98273.53;6085285;23;20032;-91
2023/04/02 00:32:47;;;;;;;3.58;1.40;;;;;;;11.12;66.63;98264.03;6132959;23;20022;-91
2023/04/02 00:35:25;;;;;;;1.90;1.42;;;;;;;11.18;65.21;98267.44;6132947;23;19990;-90
2023/04/02 00:37:51;;;;;;;1.98;1.50;;;;;;;11.38;65.11;98285.91;6133561;23;20002;-90
2023/04/02 00:40:23;;;;;;;3.55;1.42;;;;;;;11.34;66.89;98287.59;6109225;23;20045;-90
2023/04/02 00:42:49;;;;;;;2.50;1.65;;;;;;;11.22;66.48;98287.31;6133543;23;20005;-89
2023/04/02 00:45:28;;;;;;;1.85;1.40;;;;;;;11.28;64.97;98294.97;6132416;23;20488;-91
2023/04/02 00:47:59;;;;;;;2.13;1.40;;;;;;;11.16;63.81;98275.03;6132375;23;20002;-90
2023/04/02 00:50:55;;;;;;;1.48;1.35;;;;;;;11.41;64.38;98304.16;6158152;23;19998;-91
2023/04/02 00:53:24;;;;;;;2.10;1.40;;;;;;;11.43;63.87;98307.34;6103809;23;20009;-90
2023/04/02 00:55:50;;;;;;;7.82;1.98;;;;;;;11.34;65.37;98298.38;6102515;23;20012;-89
2023/04/02 00:58:28;;;;;;;3.95;1.70;;;;;;;11.32;65.62;98316.75;6100115;23;20037;-90
2023/04/02 01:00:55;;;;;;;2.00;1.50;;;;;;;11.27;64.62;98303.38;6080286;23;20006;-90
2023/04/02 01:03:27;;;;;;;5.20;1.90;;;;;;;11.37;65.35;98313.97;6104911;23;20369;-90
2023/04/02 01:06:13;;;;;;;7.53;1.60;;;;;;;11.44;64.86;98314.34;6129524;23;20092;-90
2023/04/02 01:08:53;;;;;;;3.95;1.70;;;;;;;11.40;62.12;98324.13;6104651;23;20044;-89
2023/04/02 01:11:37;;;;;;;1.90;1.40;;;;;;;11.48;62.76;98322.66;6129493;23;20002;-89
2023/04/02 01:14:19;;;;;;;1.73;1.13;;;;;;;11.40;63.09;98307.97;6104849;23;20006;-90
2023/04/02 01:17:00;;;;;;;1.60;1.20;;;;;;;11.52;61.67;98316.34;6080542;23;20081;-91
2023/04/02 01:19:28;;;;;;;1.80;1.40;;;;;;;11.42;61.28;98319.25;6103556;23;20028;-90
2023/04/02 01:22:29;;;;;;;8.00;1.60;;;;;;;11.32;62.34;98303.28;6105442;23;20017;-89
2023/04/02 01:24:58;;;;;;;2.08;1.40;;;;;;;11.32;61.75;98319.44;6116914;23;20433;-90
2023/04/02 01:27:28;;;;;;;1.55;1.40;;;;;;;11.28;61.24;98307.66;6109940;23;20432;-90
2023/04/02 01:29:55;;;;;;;1.52;1.20;;;;;;;11.36;60.96;98314.25;6087246;23;20007;-90
2023/04/02 01:32:21;;;;;;;1.75;1.38;;;;;;;11.42;60.66;98319.25;6086194;23;20076;-89
2023/04/02 01:34:51;;;;;;;3.65;1.50;;;;;;;11.33;61.18;98307.56;6135025;23;20393;-89
2023/04/02 01:37:21;;;;;;;4.28;1.63;;;;;;;11.45;60.69;98312.44;6110334;23;20028;-90
2023/04/02 01:40:05;;;;;;;2.00;1.30;;;;;;;11.49;60.41;98302.66;6136158;23;20007;-89
2023/04/02 01:42:51;;;;;;;2.20;1.60;;;;;;;11.44;60.86;98284.69;6160984;23;20001;-90
2023/04/02 01:45:18;;;;;;;3.53;1.65;;;;;;;11.56;59.16;98286.06;6110467;23;20405;-90
2023/04/02 01:47:46;;;;;;;2.13;1.48;;;;;;;11.60;58.30;98287.06;6110763;23;20001;-91
2023/04/02 01:50:32;;;;;;;1.88;1.42;;;;;;;11.61;57.80;98291.38;6134351;23;19997;-90
2023/04/02 01:53:09;;;;;;;1.75;1.20;;;;;;;11.57;58.32;98280.41;6160166;23;19981;-91
2023/04/02 01:55:48;;;;;;;4.60;1.30;;;;;;;11.59;59.86;98282.78;6110394;23;20045;-92
2023/04/02 01:58:17;;;;;;;3.05;1.45;;;;;;;11.59;58.51;98285.50;6134147;23;20381;-90
2023/04/02 02:00:47;;;;;;;2.67;1.55;;;;;;;11.30;57.62;98248.88;6110304;23;20436;-91
2023/04/02 02:03:13;;;;;;;2.70;1.52;;;;;;;11.50;59.00;98277.31;6134577;23;20005;-90
2023/04/02 02:05:41;;;;;;;2.72;1.50;;;;;;;11.48;59.40;98263.34;6132747;23;20429;-91
2023/04/02 02:08:12;;;;;;;2.03;1.33;;;;;;;11.52;60.28;98270.53;6135261;23;20028;-92
2023/04/02 02:10:40;;;;;;;1.73;1.27;;;;;;;11.49;58.19;98265.72;6110423;23;20039;-91
2023/04/02 02:13:10;;;;;;;1.95;1.27;;;;;;;11.57;58.74;98279.59;6086392;23;20009;-91
2023/04/02 02:15:36;;;;;;;1.38;1.15;;;;;;;11.51;59.33;98270.81;6159423;23;20036;-91
2023/04/02 02:18:04;;;;;;;1.40;1.20;;;;;;;11.55;59.49;98274.50;6109847;23;20005;-91
2023/04/02 02:20:30;;;;;;;1.50;1.13;;;;;;;11.55;60.75;98274.50;6134884;23;20069;-91
2023/04/02 02:22:56;;;;;;;1.75;1.20;;;;;;;11.57;60.40;98268.81;6110029;23;20411;-91
2023/04/02 02:25:24;;;;;;;2.53;1.30;;;;;;;11.69;61.38;98277.19;6108737;23;20005;-91
2023/04/02 02:27:52;;;;;;;3.72;1.33;;;;;;;11.64;61.50;98275.41;6108723;23;20032;-91
2023/04/02 02:30:31;;;;;;;1.77;1.27;;;;;;;11.46;62.93;98260.16;6159165;23;20412;-91
2023/04/02 02:33:02;;;;;;;2.08;1.67;;;;;;;11.60;62.97;98278.97;6109412;23;20057;-91
2023/04/02 02:36:01;;;;;;;3.72;1.85;;;;;;;11.55;63.82;98268.31;6133603;23;20013;-91
2023/04/02 02:38:33;;;;;;;5.55;2.65;;;;;;;11.65;63.21;98289.69;6128497;23;20006;-90
2023/04/02 02:41:10;;;;;;;4.32;3.08;;;;;;;11.48;62.72;98280.31;6102560;23;20034;-91
2023/04/02 02:44:05;;;;;;;4.18;3.00;;;;;;;11.55;63.90;98284.50;6079676;23;20362;-89
2023/04/02 02:46:30;;;;;;;4.15;3.03;;;;;;;11.56;63.85;98281.50;6100990;23;20088;-90
2023/04/02 02:48:58;;;;;;;5.32;3.38;;;;;;;11.42;64.12;98268.03;6102964;23;20060;-91
2023/04/02 02:51:29;;;;;;;3.95;3.08;;;;;;;11.37;63.85;98273.53;6079209;23;20006;-91
2023/04/02 02:54:01;;;;;;;4.55;2.92;;;;;;;11.44;64.27;98278.53;6079529;23;20026;-91
2023/04/02 02:56:27;;;;;;;4.55;3.28;;;;;;;11.46;63.99;98273.63;6102585;23;20077;-91
2023/04/02 02:58:53;;;;;;;4.38;2.53;;;;;;;11.44;64.51;98297.38;6103886;23;20337;-91
2023/04/02 03:01:20;;;;;;;3.33;1.70;;;;;;;11.16;61.09;98280.41;6103597;23;20013;-91
2023/04/02 03:03:46;;;;;;;2.05;1.20;;;;;;;11.29;59.69;98288.50;6103106;23;20085;-89
2023/04/02 03:06:15;;;;;;;1.20;1.02;;;;;;;11.31;58.20;98299.78;6080217;23;20017;-89
2023/04/02 03:08:43;;;;;;;1.75;0.88;;;;;;;11.40;57.26;98294.50;6086404;23;20036;-90
2023/04/02 03:11:15;;;;;;;1.67;1.00;;;;;;;11.45;57.31;98313.25;6133752;23;20024;-90
2023/04/02 03:13:45;;;;;;;0.80;0.70;;;;;;;11.30;57.67;98297.38;6158172;23;20001;-91
2023/04/02 03:16:10;;;;;;;2.03;0.88;;;;;;;11.33;57.99;98310.28;6086858;23;20428;-90
2023/04/02 03:18:57;;;;;;;1.08;0.80;;;;;;;11.21;58.03;98291.09;6158807;23;20001;-90
2023/04/02 03:21:32;;;;;;;2.92;1.05;;;;;;;11.24;58.71;98301.28;6157111;23;20008;-90
2023/04/02 03:24:38;;;;;;;1.58;1.00;;;;;;;11.20;59.10;98308.34;6158400;23;19998;-90
2023/04/02 03:27:20;;;;;;;1.35;0.98;;;;;;;11.21;59.72;98313.44;6117250;23;20010;-90
2023/04/02 03:30:02;;;;;;;1.15;0.80;;;;;;;11.20;59.26;98294.88;6110812;23;20016;-90
2023/04/02 03:32:29;;;;;;;;;;;;;;;11.38;57.72;98312.84;6136912;23;20365;-90
2023/04/02 03:35:24;;;;;;;1.83;0.80;;;;;;;11.33;59.42;98315.66;6157456;23;19957;-90
2023/04/02 03:38:42;;;;;;;2.45;1.15;;;;;;;11.33;58.85;98310.28;6131817;23;20001;-92
2023/04/02 03:41:21;;;;;;;1.48;0.90;;;;;;;11.41;59.28;98322.22;6109133;23;20013;-91
2023/04/02 03:43:57;;;;;;;1.90;1.10;;;;;;;11.46;58.70;98322.94;6135100;23;20004;-91
2023/04/02 03:46:38;;;;;;;1.63;0.88;;;;;;;11.49;57.22;98324.22;6109473;23;20040;-92
2023/04/02 03:49:44;;;;;;;1.48;1.00;;;;;;;11.31;57.40;98318.66;6111522;23;19997;-91
2023/04/02 03:52:13;;;;;;;1.55;0.80;;;;;;;11.32;57.91;98314.84;6069860;23;20009;-91
2023/04/02 03:54:39;;;;;;;2.28;1.02;;;;;;;11.35;58.26;98335.03;6120352;23;20001;-90
2023/04/02 03:57:12;;;;;;;3.90;1.08;;;;;;;11.33;56.38;98327.25;6108984;23;20010;-90
2023/04/02 04:00:04;;;;;;;3.05;1.10;;;;;;;11.34;57.68;98330.72;6109988;23;20010;-91
2023/04/02 04:02:56;;;;;;;1.75;0.98;;;;;;;11.48;57.99;98336.13;6133057;23;20006;-90
2023/04/02 04:05:29;;;;;;;3.28;1.10;;;;;;;11.30;57.82;98327.81;6111639;23;20340;-91
2023/04/02 04:08:04;;;;;;;1.55;1.17;;;;;;;11.39;56.90;98338.69;6110209;23;20344;-91
2023/04/02 04:10:29;;;;;;;1.85;1.00;;;;;;;11.39;58.30;98330.59;6085648;23;20093;-91
2023/04/02 04:13:00;;;;;;;2.42;0.98;;;;;;;11.31;57.90;98326.75;6108575;23;20036;-91
2023/04/02 04:15:28;;;;;;;1.75;0.98;;;;;;;11.47;57.43;98350.69;6110113;23;20028;-89
2023/04/02 04:18:00;;;;;;;3.85;1.08;;;;;;;11.52;56.60;98358.69;6158206;23;20010;-91
2023/04/02 04:20:44;;;;;;;2.00;0.93;;;;;;;11.54;57.36;98343.00;6158702;23;20013;-91
2023/04/02 04:23:31;;;;;;;2.35;1.35;;;;;;;11.63;56.55;98349.28;6087513;23;20356;-92
2023/04/02 04:25:58;;;;;;;3.17;1.13;;;;;;;11.59;57.64;98347.50;6133928;23;20451;-91
2023/04/02 04:28:49;;;;;;;1.73;1.00;;;;;;;11.75;57.68;98354.19;6133889;23;20033;-91
2023/04/02 04:31:20;;;;;;;3.40;1.00;;;;;;;11.73;56.92;98357.16;6134239;23;20002;-92
2023/04/02 04:33:49;;;;;;;1.75;1.20;;;;;;;11.87;57.11;98376.06;6086678;23;19998;-90
2023/04/02 04:36:40;;;;;;;5.40;0.90;;;;;;;11.84;55.42;98348.88;6111530;23;19998;-89
2023/04/02 04:39:13;;;;;;;2.20;0.98;;;;;;;11.98;55.82;98359.69;6135902;23;20005;-90
2023/04/02 04:41:39;;;;;;;1.63;1.20;;;;;;;12.11;55.93;98367.72;6113802;23;20002;-91
2023/04/02 04:44:16;;;;;;;2.13;0.85;;;;;;;12.11;56.52;98366.94;6111793;23;20001;-91
2023/04/02 04:46:49;;;;;;;10.45;1.52;;;;;;;12.06;56.63;98381.34;6160649;23;20005;-91
2023/04/02 04:49:46;;;;;;;2.25;1.20;;;;;;;12.17;55.48;98383.81;6135239;23;20017;-91
2023/04/02 04:52:24;;;;;;;1.02;0.80;;;;;;;12.18;53.26;98385.41;6134378;23;20006;-91
2023/04/02 04:54:51;;;;;;;4.53;1.55;;;;;;;12.18;55.13;98388.94;6110556;23;20084;-91
2023/04/02 04:57:48;;;;;;;2.47;0.90;;;;;;;12.05;54.54;98377.03;6110363;23;20088;-91
2023/04/02 05:00:19;;;;;;;15.95;1.65;;;;;;;12.01;54.73;98376.03;6105596;23;20009;-92
2023/04/02 05:02:51;;;;;;;3.20;1.10;;;;;;;12.02;54.98;98368.78;6129964;23;20006;-92
2023/04/02 05:05:19;;;;;;;;;;;;;;;12.09;54.92;98388.81;6105431;23;20006;-91
2023/04/02 05:07:50;;;;;;;1.27;1.00;;;;;;;12.08;53.78;98389.94;6130006;23;19909;-91
2023/04/02 05:10:23;;;;;;;2.33;1.10;;;;;;;12.13;54.96;98389.03;6082041;23;20006;-91
2023/04/02 05:13:11;;;;;;;1.83;1.00;;;;;;;12.11;54.34;98399.31;6106134;23;20009;-92
2023/04/02 05:15:44;;;;;;;2.63;1.20;;;;;;;12.08;53.26;98386.44;6095155;23;20009;-92
2023/04/02 05:18:32;;;;;;;1.40;0.90;;;;;;;12.16;53.01;98396.53;6106252;23;20006;-92
2023/04/02 05:21:29;;;;;;;4.65;1.60;;;;;;;12.15;54.53;98389.53;6105346;23;20093;-91
2023/04/02 05:24:17;;;;;;;5.07;1.30;;;;;;;12.15;55.58;98396.81;6109621;23;20439;-92
2023/04/02 05:26:44;;;;;;;1.80;1.02;;;;;;;12.06;54.62;98380.56;6132857;23;20524;-95
2023/04/02 05:29:24;;;;;;;2.33;1.13;;;;;;;12.29;52.93;98413.78;6108745;23;20006;-93
2023/04/02 05:31:52;;;;;;;2.97;1.13;;;;;;;12.34;52.66;98419.06;6129181;23;20028;-93
2023/04/02 05:34:25;;;;;;;2.58;1.30;;;;;;;12.33;53.94;98420.19;6163997;23;20002;-96
2023/04/02 05:36:51;;;;;;;3.95;1.63;;;;;;;12.41;53.31;98418.66;6112751;23;20009;-94
2023/04/02 05:39:21;;;;;;;2.22;1.00;;;;;;;12.29;54.33;98428.06;6111426;23;20397;-93
2023/04/02 05:41:48;;;;;;;6.90;1.80;;;;;;;12.24;54.48;98419.28;6136270;23;20017;-95
2023/04/02 05:44:21;;;;;;;3.58;1.15;;;;;;;12.37;53.24;98439.25;6136170;23;20369;-95
2023/04/02 05:47:16;;;;;;;10.60;1.17;;;;;;;12.51;54.22;98435.44;6135458;23;20049;-94
2023/04/02 05:49:49;;;;;;;10.98;4.50;;;;;;;12.37;53.39;98404.16;6152196;23;20002;-94
2023/04/02 05:52:26;;;;;;;10.63;4.60;;;;;;;12.57;53.10;98411.00;6136845;23;20005;-94
2023/04/02 05:54:59;;;;;;;6.18;2.92;;;;;;;12.74;53.03;98403.84;6135268;23;20057;-95
2023/04/02 05:57:34;;;;;;;3.10;1.65;;;;;;;12.90;51.40;98430.50;6136278;23;20063;-94
2023/04/02 06:00:05;;;;;;;3.78;1.75;;;;;;;12.90;50.93;98414.28;6160506;23;20357;-94
2023/04/02 06:02:37;;;;;;;5.03;2.00;;;;;;;13.04;50.55;98430.44;6137727;23;20010;-93
2023/04/02 06:05:15;;;;;;;3.75;1.60;;;;;;;12.99;49.59;98428.66;6159446;23;20008;-93
2023/04/02 06:08:01;;;;;;;5.43;2.33;;;;;;;12.85;52.03;98428.72;6135381;23;20016;-94
2023/04/02 06:10:28;;;;;;;5.15;2.50;;;;;;;12.81;51.31;98430.44;6136054;23;19998;-92
2023/04/02 06:13:02;;;;;;;4.28;1.90;;;;;;;12.76;51.15;98438.63;6111798;23;20355;-95
2023/04/02 06:15:29;;;;;;;4.88;1.90;;;;;;;12.98;50.94;98451.38;6136703;23;20002;-93
2023/04/02 06:18:18;;;;;;;6.43;2.47;;;;;;;13.08;52.13;98437.63;6136105;23;20009;-93
2023/04/02 06:20:47;;;;;;;6.32;2.80;;;;;;;13.09;51.37;98433.00;6160080;23;20012;-94
2023/04/02 06:23:29;;;;;;;4.15;1.77;;;;;;;13.07;49.51;98408.19;6117703;23;19990;-92
2023/04/02 06:26:00;;;;;;;3.47;1.60;;;;;;;13.36;49.80;98437.50;6137326;23;20065;-93
2023/04/02 06:28:45;;;;;;;2.95;1.20;;;;;;;13.30;48.89;98436.03;6165280;23;20006;-95
2023/04/02 06:31:38;;;;;;;1.38;0.93;;;;;;;13.35;48.70;98427.78;6138611;23;20017;-96
2023/04/02 06:34:06;;;;;;;3.83;1.30;;;;;;;13.40;48.94;98433.06;6162108;23;20022;-96
2023/04/02 06:36:32;;;;;;;3.03;1.42;;;;;;;13.27;48.57;98404.97;6112614;23;20017;-96
2023/04/02 06:39:05;;;;;;;2.03;1.30;;;;;;;13.36;49.02;98410.44;6137979;23;20012;-96
2023/04/02 06:41:31;;;;;;;3.10;1.45;;;;;;;13.55;49.09;98434.59;6139366;23;20005;-96
2023/04/02 06:44:07;;;;;;;2.83;1.20;;;;;;;13.44;49.31;98403.50;6144213;23;20010;-95
2023/04/02 06:46:42;;;;;;;2.83;0.98;;;;;;;13.54;49.27;98431.06;6115684;23;20012;-97
2023/04/02 06:49:21;;;;;;;1.95;1.00;;;;;;;13.64;48.93;98435.41;6113376;23;20002;-94
2023/04/02 06:51:47;;;;;;;1.00;0.68;;;;;;;13.60;48.12;98441.75;6141842;23;20008;-96
2023/04/02 06:54:14;;;;;;;2.42;1.08;;;;;;;13.54;49.12;98430.28;6114377;23;20096;-96
2023/04/02 06:56:47;;;;;;;1.85;0.98;;;;;;;13.64;48.56;98448.16;6112421;23;20015;-95
2023/04/02 06:59:16;;;;;;;1.17;0.70;;;;;;;13.66;49.25;98443.22;6139341;23;20455;-96
2023/04/02 07:05:08;;;;;;;1.10;0.90;;;;;;;13.58;47.78;98457.50;6162035;23;20424;-94
2023/04/02 07:07:34;;;;;;;1.60;1.02;;;;;;;13.56;48.00;98452.41;6136201;23;20031;-95
2023/04/02 07:10:00;;;;;;;2.08;0.90;;;;;;;13.42;47.88;98425.44;6136783;23;20002;-95
2023/04/02 07:12:27;;;;;;;1.80;0.80;;;;;;;13.57;48.12;98459.38;6110587;23;20488;-95
2023/04/02 07:14:52;;;;;;;2.20;1.20;;;;;;;13.48;48.53;98464.75;6087858;23;20029;-94
2023/04/02 07:17:19;;;;;;;2.22;1.00;;;;;;;13.68;47.33;98487.78;6112208;23;20001;-96
2023/04/02 07:19:48;;;;;;;1.77;0.80;;;;;;;13.63;48.04;98462.75;6136801;23;20014;-94
2023/04/02 07:22:16;;;;;;;1.55;0.60;;;;;;;13.65;48.81;98471.38;6089588;23;20015;-96
2023/04/02 07:24:42;;;;;;;0.50;0.50;;;;;;;13.76;47.41;98486.25;6160441;23;20448;-96
2023/04/02 07:27:09;;;;;;;1.08;0.80;;;;;;;13.73;47.71;98486.84;6112228;23;20005;-95
2023/04/02 07:29:41;;;;;;;2.15;1.20;;;;;;;13.62;46.81;98469.28;6112350;23;20005;-96
2023/04/02 07:32:16;;;;;;;1.77;1.23;;;;;;;13.77;47.98;98498.66;6110421;23;20089;-93
2023/04/02 07:34:42;;;;;;;1.08;0.60;;;;;;;13.79;48.08;98482.91;6110036;23;20009;-95
2023/04/02 07:37:13;;;;;;;1.85;1.20;;;;;;;13.75;47.46;98481.91;6086447;23;20002;-93
2023/04/02 07:39:39;;;;;;;1.75;1.05;;;;;;;14.11;47.40;98494.47;6110786;23;20063;-94
2023/04/02 07:42:04;;;;;;;3.80;0.95;;;;;;;14.12;47.28;98485.25;6110537;23;20009;-92
2023/04/02 07:44:31;;;;;;;5.45;1.20;;;;;;;14.33;47.34;98491.69;6110761;23;20002;-92
2023/04/02 07:46:57;;;;;;;2.47;1.27;;;;;;;14.55;45.82;98504.34;6136022;23;20005;-93
2023/04/02 07:49:24;;;;;;;1.20;0.90;;;;;;;14.59;45.79;98484.75;6109318;23;20349;-93
2023/04/02 07:51:52;;;;;;;3.95;1.13;;;;;;;14.71;45.27;98493.88;6111210;23;20350;-94
2023/04/02 07:54:17;;;;;;;4.15;1.17;;;;;;;14.80;46.48;98493.88;6112023;23;19997;-94
2023/04/02 07:56:43;;;;;;;4.60;1.02;;;;;;;15.00;45.30;98497.06;6110721;23;20068;-94
2023/04/02 07:59:09;;;;;;;1.88;0.95;;;;;;;15.08;45.00;98499.75;6110560;23;20076;-93
2023/04/02 08:01:35;;;;;;;1.27;0.80;;;;;;;15.29;44.70;98494.50;6136987;23;20005;-94
2023/04/02 08:04:03;;;;;;;2.55;0.80;;;;;;;15.40;44.16;98492.25;6110890;23;20002;-93
2023/04/02 08:06:30;;;;;;;4.47;1.30;;;;;;;15.52;44.18;98505.13;6113313;23;20002;-96
2023/04/02 08:08:58;;;;;;;1.38;0.73;;;;;;;15.82;44.08;98497.91;6143961;23;20015;-94
2023/04/02 08:11:24;;;;;;;2.38;0.80;;;;;;;15.96;43.19;98495.78;6138657;23;20440;-93
2023/04/02 08:13:51;;;;;;;2.38;0.70;;;;;;;16.02;44.33;98492.88;6112935;23;20059;-93
2023/04/02 08:16:16;;;;;;;1.23;0.80;;;;;;;16.17;42.72;98497.78;6139199;23;19997;-92
2023/04/02 08:18:44;;;;;;;2.05;0.80;;;;;;;16.28;41.89;98518.00;6113339;23;20025;-93
2023/04/02 08:21:09;;;;;;;3.53;1.10;;;;;;;16.38;41.72;98510.63;6115812;23;20002;-95
2023/04/02 08:23:36;;;;;;;1.30;0.90;;;;;;;16.31;41.40;98503.78;6114448;23;20008;-95
2023/04/02 08:26:02;;;;;;;1.85;0.80;;;;;;;16.45;42.09;98506.25;6114168;23;20029;-96
2023/04/02 08:28:28;;;;;;;1.88;0.90;;;;;;;16.61;41.04;98508.41;6163971;23;19997;-91
2023/04/02 08:30:55;;;;;;;1.63;0.70;;;;;;;16.73;40.84;98503.06;6136725;23;20063;-93
2023/04/02 08:33:22;;;;;;;1.70;0.82;;;;;;;16.76;41.34;98486.84;6113957;23;20040;-94
2023/04/02 08:35:48;;;;;;;1.90;0.90;;;;;;;16.87;40.52;98508.25;6114471;23;20005;-94
2023/04/02 08:38:14;;;;;;;0.77;0.70;;;;;;;16.59;40.35;98491.63;6140443;23;20380;-94
2023/04/02 08:40:43;;;;;;;1.13;0.77;;;;;;;16.66;41.19;98505.47;6091491;23;20056;-94
2023/04/02 08:43:27;;;;;;;1.85;1.20;;;;;;;16.51;41.26;98499.50;6139507;23;19997;-95
2023/04/02 08:46:10;;;;;;;1.27;0.80;;;;;;;16.48;40.63;98504.81;6163746;23;20001;-95
2023/04/02 08:48:38;;;;;;;1.23;0.80;;;;;;;16.46;40.73;98502.41;6139826;23;20009;-95
2023/04/02 08:51:06;;;;;;;0.82;0.75;;;;;;;16.43;40.81;98502.28;6165466;23;20008;-95
2023/04/02 08:53:34;;;;;;;1.20;0.70;;;;;;;16.31;40.72;98486.66;6139807;23;20068;-95
2023/04/02 08:56:24;;;;;;;2.97;1.10;;;;;;;16.30;41.15;98507.59;6091665;23;20005;-94
2023/04/02 08:59:01;;;;;;;3.72;0.90;;;;;;;16.35;42.01;98499.28;6138772;23;20329;-94
2023/04/02 09:01:51;;;;;;;1.33;0.80;;;;;;;16.41;40.84;98504.50;6116019;23;20483;-95
2023/04/02 09:04:23;;;;;;;1.40;0.90;;;;;;;16.41;41.12;98499.88;6118243;23;20002;-94
2023/04/02 09:06:51;;;;;;;3.80;1.45;;;;;;;16.67;42.47;98502.44;6138182;23;20007;-96
2023/04/02 09:09:17;;;;;;;1.35;0.90;;;;;;;16.76;40.92;98500.44;6164315;23;19997;-95
2023/04/02 09:12:02;;;;;;;1.75;1.10;;;;;;;16.95;40.35;98508.19;6139377;23;20008;-95
2023/04/02 09:14:49;;;;;;;2.08;0.98;;;;;;;16.92;40.08;98511.56;6115608;23;20001;-94
2023/04/02 09:17:18;;;;;;;2.03;0.90;;;;;;;17.04;39.75;98510.84;6163931;23;20054;-95
2023/04/02 09:19:46;;;;;;;1.52;0.77;;;;;;;17.11;41.00;98502.94;6137186;23;20016;-95
2023/04/02 09:22:30;;;;;;;1.67;0.80;;;;;;;17.17;39.54;98507.03;6113144;23;20420;-95
2023/04/02 09:25:01;;;;;;;2.78;0.70;;;;;;;17.10;39.23;98489.66;6136883;23;20005;-95
2023/04/02 09:27:29;;;;;;;1.30;0.90;;;;;;;17.32;38.76;98513.78;6135731;23;20397;-94
2023/04/02 09:30:08;;;;;;;0.85;0.70;;;;;;;17.26;39.25;98522.50;6112048;23;20341;-96
2023/04/02 09:32:48;;;;;;;1.05;0.80;;;;;;;17.34;38.47;98519.69;6161091;23;20030;-94
2023/04/02 09:35:19;;;;;;;1.55;0.80;;;;;;;17.34;37.77;98511.53;6111436;23;20012;-94
2023/04/02 09:37:46;;;;;;;2.17;1.00;;;;;;;17.36;38.21;98516.63;6089088;23;20001;-95
2023/04/02 09:40:20;;;;;;;0.80;0.80;;;;;;;17.32;38.35;98511.06;6111623;23;20389;-93
2023/04/02 09:42:48;;;;;;;2.15;0.82;;;;;;;17.33;38.83;98514.59;6161088;23;20352;-94
2023/04/02 09:45:45;;;;;;;1.50;1.00;;;;;;;17.35;40.03;98512.34;6135782;23;20429;-95
2023/04/02 09:48:24;;;;;;;5.95;2.58;;;;;;;17.40;39.06;98511.34;6073452;23;20338;-94
2023/04/02 09:51:12;;;;;;;3.13;1.35;;;;;;;17.30;38.51;98520.69;6051251;23;20150;-95
2023/04/02 09:53:49;;;;;;;1.60;0.90;;;;;;;17.15;38.86;98520.19;6038419;23;20018;-95
2023/04/02 09:56:22;;;;;;;1.90;0.88;;;;;;;17.08;38.04;98517.22;6048536;23;20090;-96
2023/04/02 09:59:15;;;;;;;0.93;0.70;;;;;;;17.02;38.26;98526.69;6048416;23;20104;-94
2023/04/02 10:02:21;;;;;;;2.05;0.60;;;;;;;16.95;39.17;98510.91;6070181;23;20022;-95
2023/04/02 10:04:47;;;;;;;1.05;0.65;;;;;;;17.01;38.60;98525.09;6072920;23;20081;-95
2023/04/02 10:07:31;;;;;;;2.75;0.80;;;;;;;17.05;39.34;98531.47;6048961;23;20006;-96
2023/04/02 10:10:03;;;;;;;1.77;0.70;;;;;;;17.04;38.72;98527.16;6068514;23;20006;-88
2023/04/02 10:12:29;;;;;;;;;;;;;;;17.11;39.04;98538.28;6069832;23;20003;-87
2023/04/02 10:14:55;;;;;;;1.55;0.85;;;;;;;17.01;39.44;98529.75;6045594;23;19929;-87
2023/04/02 10:17:32;;;;;;;1.38;0.90;;;;;;;17.06;38.99;98524.91;6021167;23;20085;-86
2023/04/02 10:20:24;;;;;;;1.45;0.85;;;;;;;17.05;37.91;98525.22;6099355;23;20006;-87
2023/04/02 10:22:51;;;;;;;1.33;0.90;;;;;;;17.15;38.43;98520.19;6111725;23;20001;-87
2023/04/02 10:25:16;;;;;;;2.35;1.00;;;;;;;17.19;38.69;98508.66;6156995;23;20233;-87
2023/04/02 10:27:50;;;;;;;1.80;0.75;;;;;;;17.39;38.22;98518.72;6108621;23;20002;-86
2023/04/02 10:30:21;;;;;;;1.13;0.82;;;;;;;17.34;37.68;98527.06;6132874;23;20005;-86
2023/04/02 10:33:00;;;;;;;1.40;0.80;;;;;;;17.26;37.50;98517.03;6156056;23;20119;-86
2023/04/02 10:35:51;;;;;;;1.05;0.80;;;;;;;17.34;37.69;98519.69;6157292;23;20511;-86
2023/04/02 10:38:37;;;;;;;1.07;0.83;;;;;;;17.42;38.01;98518.03;6132855;23;20021;-87
2023/04/02 10:41:38;;;;;;;2.63;1.40;;;;;;;17.52;37.55;98524.97;6131149;23;20033;-87
2023/04/02 10:44:12;;;;;;;1.42;0.85;;;;;;;17.61;37.01;98520.22;6156668;23;20009;-87
2023/04/02 10:47:00;;;;;;;1.13;0.80;;;;;;;17.82;36.64;98520.16;6158273;23;20080;-87
2023/04/02 10:49:42;;;;;;;1.80;0.95;;;;;;;17.98;36.39;98512.19;6158199;23;20049;-87
2023/04/02 10:52:20;;;;;;;1.52;0.90;;;;;;;17.95;37.02;98523.72;6132607;23;20001;-87
2023/04/02 10:54:50;;;;;;;1.02;0.73;;;;;;;18.02;36.37;98512.31;6132569;23;20005;-87
2023/04/02 10:57:31;;;;;;;0.70;0.50;;;;;;;18.14;34.47;98515.81;6132202;23;20105;-87
2023/04/02 11:00:06;;;;;;;1.42;0.80;;;;;;;18.15;35.34;98514.69;6156966;23;20440;-87
2023/04/02 11:02:56;;;;;;;1.27;0.80;;;;;;;18.19;35.50;98509.34;6158459;23;20012;-87
2023/04/02 11:05:26;;;;;;;1.20;0.70;;;;;;;18.01;36.32;98514.22;6156720;23;20011;-87
2023/04/02 11:08:06;;;;;;;4.07;0.87;;;;;;;18.01;36.33;98503.31;6133211;23;20010;-88
2023/04/02 11:10:34;;;;;;;1.55;1.00;;;;;;;17.98;35.72;98504.00;6133759;23;19998;-88
2023/04/02 11:13:08;;;;;;;1.52;1.00;;;;;;;17.85;35.21;98505.91;6108660;23;20005;-88
2023/04/02 11:15:34;;;;;;;1.20;0.80;;;;;;;17.95;34.98;98504.66;6109833;23;20005;-88
2023/04/02 11:18:00;;;;;;;2.85;0.90;;;;;;;17.98;34.74;98504.78;6109988;23;20004;-88
2023/04/02 11:20:47;;;;;;;2.53;0.60;;;;;;;18.23;33.93;98504.81;6107693;23;20009;-86
2023/04/02 11:23:18;;;;;;;1.88;1.48;;;;;;;18.36;33.35;98490.06;6157098;23;20005;-87
2023/04/02 11:25:43;;;;;;;1.00;0.70;;;;;;;18.58;33.55;98501.63;6132456;23;20052;-86
2023/04/02 11:28:27;;;;;;;0.63;0.60;;;;;;;18.57;33.99;98508.19;6108015;23;20009;-88
2023/04/02 11:30:53;;;;;;;1.70;0.90;;;;;;;18.42;33.92;98496.06;6131167;23;20519;-87
2023/04/02 11:33:38;;;;;;;0.65;0.55;;;;;;;18.61;33.51;98500.13;6127086;23;20065;-88
2023/04/02 11:36:07;;;;;;;1.65;1.13;;;;;;;18.62;33.93;98486.16;6104204;23;20088;-88
2023/04/02 11:38:45;;;;;;;1.77;0.80;;;;;;;18.60;33.46;98501.28;6103133;23;20421;-88
2023/04/02 11:41:10;;;;;;;1.60;0.90;;;;;;;18.58;33.43;98487.97;6152428;23;20010;-88
2023/04/02 11:43:36;;;;;;;1.45;0.80;;;;;;;18.81;33.75;98487.50;6103125;23;20491;-86
2023/04/02 11:46:31;;;;;;;2.55;1.88;;;;;;;18.97;33.00;98482.94;6152421;23;20006;-87
2023/04/02 11:49:31;;;;;;;1.52;1.02;;;;;;;19.10;31.56;98495.38;6151152;23;19998;-86
2023/04/02 11:51:57;;;;;;;1.25;0.73;;;;;;;19.15;31.90;98477.94;6128222;23;19998;-87
2023/04/02 11:54:23;;;;;;;1.17;0.63;;;;;;;19.11;31.72;98491.53;6102917;23;20001;-87
2023/04/02 11:57:23;;;;;;;0.52;0.52;;;;;;;19.24;31.09;98483.28;6079188;23;20426;-88
2023/04/02 12:00:07;;;;;;;1.67;0.55;;;;;;;19.48;30.90;98482.34;6108560;23;20017;-87
2023/04/02 12:03:02;;;;;;;0.90;0.60;;;;;;;19.67;31.01;98492.59;6128306;23;20002;-88
2023/04/02 12:05:57;;;;;;;1.33;0.57;;;;;;;19.61;31.63;98496.72;6126579;23;20022;-89
2023/04/02 12:08:53;;;;;;;1.45;0.75;;;;;;;19.42;32.11;98489.22;6114681;23;20072;-87
2023/04/02 12:11:52;;;;;;;3.08;0.65;;;;;;;19.18;31.85;98485.47;6107653;23;20006;-87
2023/04/02 12:14:31;;;;;;;2.70;0.60;;;;;;;18.90;32.89;98499.06;6044386;23;20011;-87